Addyston, OH (45001)

8:52 PM EDT on September 02, 2015 (GMT -0400)
Miami Township | | Change Station
CLOSE
Current Station
Personal Weather Station
Location: Cincinnati, OH
Elevation: 817 ft
Nearby Weather Stations

Elev 817 ft 39.14 °N, 84.70 °W | Updated 7 seconds ago

Partly Cloudy
Partly Cloudy
79.5 °F
Feels Like 83 °F
N
0.0
Wind Variable Wind from ESE
Gusts 0.0 mph

Today
High -- | Low -- °F
--% Chance of Precip.
Yesterday
High -- | Low -- °F
Precip. -- in
7:08 AM 8:08 PM
Waning Gibbous, 75% visible
Pressure 30.00 in
Visibility 9.0 miles
Clouds Few 4000 ft
Scattered Clouds 25000 ft
Heat Index 83 °F
Dew Point 71 °F
Humidity 76%
Rainfall in
Snow Depth Not available.
UV 0.9 out of 12
Pollen 10.20 out of 12
Air Quality Not available.
Flu Activity Not available.
METAR KCVG 022352Z 27003KT 9SM FEW040CB SCT250 28/20 A3002 RMK AO2 SLP158 CB VC NE-E MOV LTL T02830200 10322 20283 55006
Pressure 30.00 in
Visibility 9.0 miles
Clouds Few 4000 ft
Scattered Clouds 25000 ft
Heat Index 83 °F
Dew Point 71 °F
Humidity 76%
Rainfall in
Snow Depth Not available.
UV 0.9 out of 12
Pollen 10.20 out of 12
Air Quality Not available.
Flu Activity Not available.
METAR KCVG 022352Z 27003KT 9SM FEW040CB SCT250 28/20 A3002 RMK AO2 SLP158 CB VC NE-E MOV LTL T02830200 10322 20283 55006

10-Day Weather Forecast

×

Almanac

Astronomy

Sep. 02, 2015 Rise Set
Actual Time
Civil Twilight
Nautical Twilight
Astronomical Twilight
Moon
Length of Visible Light
Length of Day
Tomorrow will be .
, % of the Moon is Illuminated

Today's Extremes

State Highs State Lows

Community

WunderPhotos

Upload Photos

1,851,855 photos uploaded!

WunderBlogs® & News

Nearby

Air Quality

  Air Quality AQ Index Pollutant
Not available.

Snow Depth

Station Depth Elevation

Earthquake Activity

City Distance Mag. Time & Date
Minimum magnitude displayed is 2.5.

Coastal Water Temperatures

Place Temperature

Stations

Nearby Weather Stations

Station Location Temp. Windchill Dew Point Humidity Wind Precip. Elev Updated Type